sensor_id;sensor_type;location;lat;lon;timestamp;pressure;altitude;pressure_sealevel;temperature;humidity
45071;BME280;30836;48.906;9.140;2023-04-08T00:00:36;989.02;;;14.95;50.99
45071;BME280;30836;48.906;9.140;2023-04-08T00:01:37;989.00;;;14.94;50.95
45071;BME280;30836;48.906;9.140;2023-04-08T00:02:37;989.00;;;14.96;50.81
45071;BME280;30836;48.906;9.140;2023-04-08T00:03:38;989.02;;;14.96;51.03
45071;BME280;30836;48.906;9.140;2023-04-08T00:04:38;989.02;;;14.95;50.92
45071;BME280;30836;48.906;9.140;2023-04-08T00:05:38;989.00;;;14.98;50.85
45071;BME280;30836;48.906;9.140;2023-04-08T00:06:39;988.96;;;15.03;50.63
45071;BME280;30836;48.906;9.140;2023-04-08T00:07:39;988.96;;;15.10;50.47
45071;BME280;30836;48.906;9.140;2023-04-08T00:08:40;988.98;;;15.15;50.45
45071;BME280;30836;48.906;9.140;2023-04-08T00:09:40;988.96;;;15.17;50.42
45071;BME280;30836;48.906;9.140;2023-04-08T00:10:41;989.00;;;15.16;50.50
45071;BME280;30836;48.906;9.140;2023-04-08T00:11:41;988.98;;;15.16;50.41
45071;BME280;30836;48.906;9.140;2023-04-08T00:12:41;989.02;;;15.16;50.40
45071;BME280;30836;48.906;9.140;2023-04-08T00:13:42;989.00;;;15.14;50.40
45071;BME280;30836;48.906;9.140;2023-04-08T00:14:42;989.04;;;15.14;50.39
45071;BME280;30836;48.906;9.140;2023-04-08T00:15:43;989.00;;;15.14;50.47
45071;BME280;30836;48.906;9.140;2023-04-08T00:16:43;989.04;;;15.10;50.54
45071;BME280;30836;48.906;9.140;2023-04-08T00:17:44;989.04;;;15.08;50.68
45071;BME280;30836;48.906;9.140;2023-04-08T00:18:44;989.02;;;15.09;50.55
45071;BME280;30836;48.906;9.140;2023-04-08T00:19:44;989.02;;;15.10;50.61
45071;BME280;30836;48.906;9.140;2023-04-08T00:20:45;989.00;;;15.10;50.48
45071;BME280;30836;48.906;9.140;2023-04-08T00:21:45;989.00;;;15.13;50.39
45071;BME280;30836;48.906;9.140;2023-04-08T00:22:46;989.04;;;15.16;50.40
45071;BME280;30836;48.906;9.140;2023-04-08T00:23:46;989.02;;;15.15;50.45
45071;BME280;30836;48.906;9.140;2023-04-08T00:24:47;989.00;;;15.13;50.25
45071;BME280;30836;48.906;9.140;2023-04-08T00:25:47;989.02;;;15.13;50.37
45071;BME280;30836;48.906;9.140;2023-04-08T00:26:47;989.00;;;15.12;50.43
45071;BME280;30836;48.906;9.140;2023-04-08T00:27:48;989.02;;;15.14;50.29
45071;BME280;30836;48.906;9.140;2023-04-08T00:28:48;989.04;;;15.16;50.21
45071;BME280;30836;48.906;9.140;2023-04-08T00:29:49;989.02;;;15.17;50.26
45071;BME280;30836;48.906;9.140;2023-04-08T00:30:49;989.04;;;15.19;50.23
45071;BME280;30836;48.906;9.140;2023-04-08T00:31:50;989.04;;;15.23;50.12
45071;BME280;30836;48.906;9.140;2023-04-08T00:32:50;989.08;;;15.27;49.97
45071;BME280;30836;48.906;9.140;2023-04-08T00:33:50;989.08;;;15.33;49.85
45071;BME280;30836;48.906;9.140;2023-04-08T00:34:51;989.10;;;15.36;49.66
45071;BME280;30836;48.906;9.140;2023-04-08T00:35:51;989.10;;;15.37;49.73
45071;BME280;30836;48.906;9.140;2023-04-08T00:36:52;989.12;;;15.32;49.88
45071;BME280;30836;48.906;9.140;2023-04-08T00:37:52;989.10;;;15.26;49.88
45071;BME280;30836;48.906;9.140;2023-04-08T00:38:52;989.08;;;15.25;49.95
45071;BME280;30836;48.906;9.140;2023-04-08T00:39:53;989.08;;;15.24;49.94
45071;BME280;30836;48.906;9.140;2023-04-08T00:40:53;989.08;;;15.25;49.94
45071;BME280;30836;48.906;9.140;2023-04-08T00:41:54;989.10;;;15.25;49.96
45071;BME280;30836;48.906;9.140;2023-04-08T00:42:55;989.12;;;15.28;49.94
45071;BME280;30836;48.906;9.140;2023-04-08T00:43:56;989.12;;;15.33;49.77
45071;BME280;30836;48.906;9.140;2023-04-08T00:44:57;989.12;;;15.36;49.75
45071;BME280;30836;48.906;9.140;2023-04-08T00:45:57;989.14;;;15.38;49.58
45071;BME280;30836;48.906;9.140;2023-04-08T00:46:57;989.15;;;15.41;49.46
45071;BME280;30836;48.906;9.140;2023-04-08T00:47:58;989.14;;;15.43;49.51
45071;BME280;30836;48.906;9.140;2023-04-08T00:48:58;989.15;;;15.44;49.51
45071;BME280;30836;48.906;9.140;2023-04-08T00:49:59;989.15;;;15.44;49.47
45071;BME280;30836;48.906;9.140;2023-04-08T00:50:59;989.17;;;15.45;49.34
45071;BME280;30836;48.906;9.140;2023-04-08T00:52:00;989.15;;;15.43;49.48
45071;BME280;30836;48.906;9.140;2023-04-08T00:53:00;989.15;;;15.40;49.46
45071;BME280;30836;48.906;9.140;2023-04-08T00:54:01;989.17;;;15.38;49.55
45071;BME280;30836;48.906;9.140;2023-04-08T00:55:02;989.19;;;15.36;49.48
45071;BME280;30836;48.906;9.140;2023-04-08T00:56:03;989.21;;;15.40;49.40
45071;BME280;30836;48.906;9.140;2023-04-08T00:57:04;989.23;;;15.52;48.88
45071;BME280;30836;48.906;9.140;2023-04-08T00:58:05;989.19;;;15.67;48.45
45071;BME280;30836;48.906;9.140;2023-04-08T00:59:05;989.19;;;15.83;48.19
45071;BME280;30836;48.906;9.140;2023-04-08T01:00:06;989.21;;;15.98;47.77
45071;BME280;30836;48.906;9.140;2023-04-08T01:01:11;989.19;;;16.13;47.42
45071;BME280;30836;48.906;9.140;2023-04-08T01:03:46;989.21;;;16.36;46.87
45071;BME280;30836;48.906;9.140;2023-04-08T01:06:58;989.25;;;16.48;46.46
45071;BME280;30836;48.906;9.140;2023-04-08T01:08:06;989.23;;;16.44;46.86
45071;BME280;30836;48.906;9.140;2023-04-08T01:09:09;989.21;;;16.44;46.72
45071;BME280;30836;48.906;9.140;2023-04-08T01:10:12;989.23;;;16.43;46.78
45071;BME280;30836;48.906;9.140;2023-04-08T01:11:16;989.23;;;16.39;46.67
45071;BME280;30836;48.906;9.140;2023-04-08T01:12:19;989.21;;;16.38;46.58
45071;BME280;30836;48.906;9.140;2023-04-08T01:13:24;989.21;;;16.35;46.70
45071;BME280;30836;48.906;9.140;2023-04-08T01:14:29;989.21;;;16.34;46.70
45071;BME280;30836;48.906;9.140;2023-04-08T01:15:30;989.23;;;16.36;46.55
45071;BME280;30836;48.906;9.140;2023-04-08T01:16:34;989.23;;;16.41;46.49
45071;BME280;30836;48.906;9.140;2023-04-08T01:17:37;989.23;;;16.48;46.26
45071;BME280;30836;48.906;9.140;2023-04-08T01:18:40;989.21;;;16.51;46.32
45071;BME280;30836;48.906;9.140;2023-04-08T01:19:42;989.21;;;16.49;46.41
45071;BME280;30836;48.906;9.140;2023-04-08T01:20:44;989.21;;;16.48;46.36
45071;BME280;30836;48.906;9.140;2023-04-08T01:21:46;989.23;;;16.45;46.50
45071;BME280;30836;48.906;9.140;2023-04-08T01:24:00;989.23;;;16.44;46.38
45071;BME280;30836;48.906;9.140;2023-04-08T01:26:19;989.25;;;16.50;46.14
45071;BME280;30836;48.906;9.140;2023-04-08T01:27:21;989.25;;;16.56;45.97
45071;BME280;30836;48.906;9.140;2023-04-08T01:28:24;989.21;;;16.62;45.97
45071;BME280;30836;48.906;9.140;2023-04-08T01:29:28;989.23;;;16.66;45.79
45071;BME280;30836;48.906;9.140;2023-04-08T01:30:30;989.21;;;16.71;45.63
45071;BME280;30836;48.906;9.140;2023-04-08T01:31:31;989.21;;;16.73;45.54
45071;BME280;30836;48.906;9.140;2023-04-08T01:32:32;989.17;;;16.75;45.43
45071;BME280;30836;48.906;9.140;2023-04-08T01:33:33;989.21;;;16.79;45.39
45071;BME280;30836;48.906;9.140;2023-04-08T01:34:35;989.21;;;16.80;45.38
45071;BME280;30836;48.906;9.140;2023-04-08T01:35:37;989.21;;;16.78;45.47
45071;BME280;30836;48.906;9.140;2023-04-08T01:36:38;989.17;;;16.77;45.40
45071;BME280;30836;48.906;9.140;2023-04-08T01:37:40;989.17;;;16.78;45.32
45071;BME280;30836;48.906;9.140;2023-04-08T01:38:42;989.17;;;16.81;45.20
45071;BME280;30836;48.906;9.140;2023-04-08T01:39:43;989.14;;;16.86;45.15
45071;BME280;30836;48.906;9.140;2023-04-08T01:40:46;989.15;;;16.90;45.05
45071;BME280;30836;48.906;9.140;2023-04-08T01:41:47;989.15;;;16.92;45.05
45071;BME280;30836;48.906;9.140;2023-04-08T01:42:49;989.15;;;16.90;45.15
45071;BME280;30836;48.906;9.140;2023-04-08T01:43:53;989.17;;;16.84;45.43
45071;BME280;30836;48.906;9.140;2023-04-08T01:44:55;989.14;;;16.78;45.40
45071;BME280;30836;48.906;9.140;2023-04-08T01:45:57;989.15;;;16.75;45.46
45071;BME280;30836;48.906;9.140;2023-04-08T01:46:59;989.14;;;16.73;45.36
45071;BME280;30836;48.906;9.140;2023-04-08T01:48:00;989.14;;;16.74;45.33
45071;BME280;30836;48.906;9.140;2023-04-08T01:49:02;989.14;;;16.78;45.25
45071;BME280;30836;48.906;9.140;2023-04-08T01:50:05;989.14;;;16.80;45.23
45071;BME280;30836;48.906;9.140;2023-04-08T01:51:07;989.12;;;16.79;45.37
45071;BME280;30836;48.906;9.140;2023-04-08T01:52:08;989.12;;;16.71;45.66
45071;BME280;30836;48.906;9.140;2023-04-08T01:53:09;989.14;;;16.59;45.97
45071;BME280;30836;48.906;9.140;2023-04-08T01:54:10;989.08;;;16.44;46.21
45071;BME280;30836;48.906;9.140;2023-04-08T01:55:11;989.06;;;16.31;46.50
45071;BME280;30836;48.906;9.140;2023-04-08T01:56:12;989.10;;;16.18;46.77
45071;BME280;30836;48.906;9.140;2023-04-08T01:57:16;989.10;;;16.08;46.89
45071;BME280;30836;48.906;9.140;2023-04-08T01:58:20;989.12;;;16.01;47.17
45071;BME280;30836;48.906;9.140;2023-04-08T01:59:21;989.12;;;15.93;47.50
45071;BME280;30836;48.906;9.140;2023-04-08T02:00:28;989.08;;;15.85;47.67
45071;BME280;30836;48.906;9.140;2023-04-08T02:01:30;989.08;;;15.83;47.62
45071;BME280;30836;48.906;9.140;2023-04-08T02:02:31;989.10;;;15.89;47.24
45071;BME280;30836;48.906;9.140;2023-04-08T02:03:35;989.12;;;16.00;46.97
45071;BME280;30836;48.906;9.140;2023-04-08T02:04:37;989.12;;;16.11;46.65
45071;BME280;30836;48.906;9.140;2023-04-08T02:05:38;989.14;;;16.18;46.55
45071;BME280;30836;48.906;9.140;2023-04-08T02:06:39;989.12;;;16.23;46.38
45071;BME280;30836;48.906;9.140;2023-04-08T02:07:39;989.12;;;16.32;46.11
45071;BME280;30836;48.906;9.140;2023-04-08T02:08:40;989.14;;;16.34;46.25
45071;BME280;30836;48.906;9.140;2023-04-08T02:09:40;989.14;;;16.27;46.51
45071;BME280;30836;48.906;9.140;2023-04-08T02:10:41;989.15;;;16.18;46.70
45071;BME280;30836;48.906;9.140;2023-04-08T02:11:41;989.14;;;16.09;46.81
45071;BME280;30836;48.906;9.140;2023-04-08T02:12:42;989.14;;;15.99;47.12
45071;BME280;30836;48.906;9.140;2023-04-08T02:13:43;989.14;;;15.90;47.35
45071;BME280;30836;48.906;9.140;2023-04-08T02:14:44;989.14;;;15.84;47.44
45071;BME280;30836;48.906;9.140;2023-04-08T02:15:48;989.15;;;15.80;47.47
45071;BME280;30836;48.906;9.140;2023-04-08T02:18:07;989.15;;;15.72;47.56
45071;BME280;30836;48.906;9.140;2023-04-08T02:19:14;989.14;;;15.70;47.56
45071;BME280;30836;48.906;9.140;2023-04-08T02:21:32;989.15;;;15.73;47.27
45071;BME280;30836;48.906;9.140;2023-04-08T02:22:46;989.17;;;15.75;47.22
45071;BME280;30836;48.906;9.140;2023-04-08T02:23:52;989.15;;;15.70;47.38
45071;BME280;30836;48.906;9.140;2023-04-08T02:24:54;989.17;;;15.62;47.81
45071;BME280;30836;48.906;9.140;2023-04-08T02:25:55;989.15;;;15.51;47.99
45071;BME280;30836;48.906;9.140;2023-04-08T02:26:56;989.15;;;15.40;48.31
45071;BME280;30836;48.906;9.140;2023-04-08T02:27:58;989.19;;;15.32;48.45
45071;BME280;30836;48.906;9.140;2023-04-08T02:29:02;989.17;;;15.32;48.20
45071;BME280;30836;48.906;9.140;2023-04-08T02:30:05;989.21;;;15.40;47.91
45071;BME280;30836;48.906;9.140;2023-04-08T02:31:08;989.21;;;15.52;47.61
45071;BME280;30836;48.906;9.140;2023-04-08T02:32:10;989.21;;;15.64;47.36
45071;BME280;30836;48.906;9.140;2023-04-08T02:33:11;989.17;;;15.75;47.08
45071;BME280;30836;48.906;9.140;2023-04-08T02:34:12;989.19;;;15.84;46.94
45071;BME280;30836;48.906;9.140;2023-04-08T02:35:14;989.19;;;15.91;46.95
45071;BME280;30836;48.906;9.140;2023-04-08T02:36:16;989.19;;;15.95;46.81
45071;BME280;30836;48.906;9.140;2023-04-08T02:37:17;989.21;;;16.00;46.79
45071;BME280;30836;48.906;9.140;2023-04-08T02:38:17;989.21;;;16.03;46.83
45071;BME280;30836;48.906;9.140;2023-04-08T02:38:27;989.19;;;16.06;46.79
45071;BME280;30836;48.906;9.140;2023-04-08T02:39:31;989.21;;;16.05;46.79
45071;BME280;30836;48.906;9.140;2023-04-08T02:40:32;989.25;;;15.96;47.13
45071;BME280;30836;48.906;9.140;2023-04-08T02:41:33;989.21;;;15.78;47.80
45071;BME280;30836;48.906;9.140;2023-04-08T02:42:33;989.23;;;15.60;48.21
45071;BME280;30836;48.906;9.140;2023-04-08T02:43:34;989.21;;;15.45;48.37
45071;BME280;30836;48.906;9.140;2023-04-08T02:44:34;989.21;;;15.36;48.52
45071;BME280;30836;48.906;9.140;2023-04-08T02:45:39;989.21;;;15.28;48.70
45071;BME280;30836;48.906;9.140;2023-04-08T02:46:41;989.21;;;15.23;48.71
45071;BME280;30836;48.906;9.140;2023-04-08T02:47:41;989.21;;;15.21;48.85
45071;BME280;30836;48.906;9.140;2023-04-08T02:48:42;989.23;;;15.19;48.84
45071;BME280;30836;48.906;9.140;2023-04-08T02:49:42;989.19;;;15.18;48.88
45071;BME280;30836;48.906;9.140;2023-04-08T02:50:42;989.21;;;15.17;48.88
45071;BME280;30836;48.906;9.140;2023-04-08T02:51:43;989.19;;;15.16;48.96
45071;BME280;30836;48.906;9.140;2023-04-08T02:52:43;989.19;;;15.09;49.31
45071;BME280;30836;48.906;9.140;2023-04-08T02:53:44;989.19;;;14.99;49.60
45071;BME280;30836;48.906;9.140;2023-04-08T02:54:44;989.19;;;14.93;49.65
45071;BME280;30836;48.906;9.140;2023-04-08T02:55:44;989.21;;;14.90;49.72
45071;BME280;30836;48.906;9.140;2023-04-08T02:56:45;989.17;;;14.87;49.80
45071;BME280;30836;48.906;9.140;2023-04-08T02:57:45;989.15;;;14.86;49.62
45071;BME280;30836;48.906;9.140;2023-04-08T02:58:46;989.17;;;14.86;49.76
45071;BME280;30836;48.906;9.140;2023-04-08T02:59:47;989.19;;;14.88;49.76
45071;BME280;30836;48.906;9.140;2023-04-08T03:00:47;989.19;;;14.88;49.88
45071;BME280;30836;48.906;9.140;2023-04-08T03:01:48;989.19;;;14.89;49.88
45071;BME280;30836;48.906;9.140;2023-04-08T03:02:48;989.17;;;14.91;49.76
45071;BME280;30836;48.906;9.140;2023-04-08T03:03:49;989.17;;;14.91;49.85
45071;BME280;30836;48.906;9.140;2023-04-08T03:04:49;989.19;;;14.91;49.84
45071;BME280;30836;48.906;9.140;2023-04-08T03:05:49;989.17;;;14.93;49.83
45071;BME280;30836;48.906;9.140;2023-04-08T03:06:50;989.17;;;14.95;49.80
45071;BME280;30836;48.906;9.140;2023-04-08T03:07:50;989.19;;;14.98;49.76
45071;BME280;30836;48.906;9.140;2023-04-08T03:08:51;989.17;;;15.00;49.76
45071;BME280;30836;48.906;9.140;2023-04-08T03:09:52;989.23;;;15.02;49.62
45071;BME280;30836;48.906;9.140;2023-04-08T03:10:53;989.23;;;15.04;49.59
45071;BME280;30836;48.906;9.140;2023-04-08T03:11:54;989.23;;;15.04;49.57
45071;BME280;30836;48.906;9.140;2023-04-08T03:12:54;989.25;;;15.04;49.60
45071;BME280;30836;48.906;9.140;2023-04-08T03:13:54;989.23;;;15.04;49.58
45071;BME280;30836;48.906;9.140;2023-04-08T03:14:55;989.25;;;15.05;49.59
45071;BME280;30836;48.906;9.140;2023-04-08T03:15:55;989.25;;;15.06;49.50
45071;BME280;30836;48.906;9.140;2023-04-08T03:16:56;989.27;;;15.07;49.43
45071;BME280;30836;48.906;9.140;2023-04-08T03:17:57;989.25;;;15.07;49.47
45071;BME280;30836;48.906;9.140;2023-04-08T03:18:57;989.25;;;15.06;49.37
45071;BME280;30836;48.906;9.140;2023-04-08T03:19:57;989.25;;;15.05;49.40
45071;BME280;30836;48.906;9.140;2023-04-08T03:20:58;989.27;;;15.05;49.45
45071;BME280;30836;48.906;9.140;2023-04-08T03:21:58;989.27;;;15.04;49.38
45071;BME280;30836;48.906;9.140;2023-04-08T03:22:59;989.27;;;15.03;49.35
45071;BME280;30836;48.906;9.140;2023-04-08T03:23:59;989.27;;;15.04;49.36
45071;BME280;30836;48.906;9.140;2023-04-08T03:25:00;989.27;;;15.07;49.29
45071;BME280;30836;48.906;9.140;2023-04-08T03:26:00;989.27;;;15.10;49.27
45071;BME280;30836;48.906;9.140;2023-04-08T03:27:01;989.25;;;15.13;49.18
45071;BME280;30836;48.906;9.140;2023-04-08T03:28:02;989.25;;;15.14;49.24
45071;BME280;30836;48.906;9.140;2023-04-08T03:29:02;989.27;;;15.14;49.36
45071;BME280;30836;48.906;9.140;2023-04-08T03:30:03;989.27;;;15.14;49.29
45071;BME280;30836;48.906;9.140;2023-04-08T03:31:04;989.27;;;15.14;49.24
45071;BME280;30836;48.906;9.140;2023-04-08T03:32:04;989.29;;;15.14;49.24
45071;BME280;30836;48.906;9.140;2023-04-08T03:33:04;989.29;;;15.15;49.20
45071;BME280;30836;48.906;9.140;2023-04-08T03:34:05;989.27;;;15.16;49.23
45071;BME280;30836;48.906;9.140;2023-04-08T03:35:05;989.29;;;15.16;49.28
45071;BME280;30836;48.906;9.140;2023-04-08T03:36:06;989.27;;;15.14;49.29
45071;BME280;30836;48.906;9.140;2023-04-08T03:37:07;989.27;;;15.11;49.34
45071;BME280;30836;48.906;9.140;2023-04-08T03:38:07;989.29;;;15.08;49.40
45071;BME280;30836;48.906;9.140;2023-04-08T03:39:08;989.31;;;15.04;49.52
45071;BME280;30836;48.906;9.140;2023-04-08T03:40:08;989.31;;;15.03;49.58
45071;BME280;30836;48.906;9.140;2023-04-08T03:41:09;989.31;;;15.05;49.44
45071;BME280;30836;48.906;9.140;2023-04-08T03:42:10;989.33;;;15.16;48.90
45071;BME280;30836;48.906;9.140;2023-04-08T03:43:10;989.33;;;15.30;48.63
45071;BME280;30836;48.906;9.140;2023-04-08T03:44:10;989.31;;;15.42;48.39
45071;BME280;30836;48.906;9.140;2023-04-08T03:45:11;989.31;;;15.55;48.06
45071;BME280;30836;48.906;9.140;2023-04-08T03:46:11;989.33;;;15.67;47.73
45071;BME280;30836;48.906;9.140;2023-04-08T03:47:12;989.31;;;15.76;47.56
45071;BME280;30836;48.906;9.140;2023-04-08T03:48:12;989.29;;;15.84;47.42
45071;BME280;30836;48.906;9.140;2023-04-08T03:49:13;989.29;;;15.90;47.42
45071;BME280;30836;48.906;9.140;2023-04-08T03:50:13;989.29;;;15.95;47.34
45071;BME280;30836;48.906;9.140;2023-04-08T03:51:13;989.29;;;15.97;47.30
45071;BME280;30836;48.906;9.140;2023-04-08T03:52:14;989.29;;;15.97;47.39
45071;BME280;30836;48.906;9.140;2023-04-08T03:53:14;989.29;;;15.94;47.24
45071;BME280;30836;48.906;9.140;2023-04-08T03:54:15;989.29;;;15.90;47.59
45071;BME280;30836;48.906;9.140;2023-04-08T03:55:15;989.27;;;15.87;47.49
45071;BME280;30836;48.906;9.140;2023-04-08T03:56:16;989.27;;;15.87;47.38
45071;BME280;30836;48.906;9.140;2023-04-08T03:57:16;989.25;;;15.87;47.35
45071;BME280;30836;48.906;9.140;2023-04-08T03:58:16;989.27;;;15.87;47.41
45071;BME280;30836;48.906;9.140;2023-04-08T03:59:17;989.25;;;15.85;47.54
45071;BME280;30836;48.906;9.140;2023-04-08T04:00:17;989.23;;;15.82;47.66
45071;BME280;30836;48.906;9.140;2023-04-08T04:01:18;989.23;;;15.80;47.70
45071;BME280;30836;48.906;9.140;2023-04-08T04:02:18;989.25;;;15.81;47.59
45071;BME280;30836;48.906;9.140;2023-04-08T04:03:18;989.25;;;15.84;47.44
45071;BME280;30836;48.906;9.140;2023-04-08T04:04:19;989.21;;;15.88;47.42
45071;BME280;30836;48.906;9.140;2023-04-08T04:05:19;989.23;;;15.94;47.28
45071;BME280;30836;48.906;9.140;2023-04-08T04:06:20;989.21;;;15.99;47.14
45071;BME280;30836;48.906;9.140;2023-04-08T04:07:20;989.21;;;16.02;47.06
45071;BME280;30836;48.906;9.140;2023-04-08T04:08:21;989.19;;;16.04;46.99
45071;BME280;30836;48.906;9.140;2023-04-08T04:09:21;989.21;;;16.08;46.91
45071;BME280;30836;48.906;9.140;2023-04-08T04:10:22;989.19;;;16.12;46.83
45071;BME280;30836;48.906;9.140;2023-04-08T04:11:22;989.19;;;16.14;46.79
45071;BME280;30836;48.906;9.140;2023-04-08T04:12:23;989.19;;;16.12;46.67
45071;BME280;30836;48.906;9.140;2023-04-08T04:13:23;989.21;;;16.14;46.71
45071;BME280;30836;48.906;9.140;2023-04-08T04:14:24;989.21;;;16.17;46.62
45071;BME280;30836;48.906;9.140;2023-04-08T04:15:24;989.23;;;16.21;46.56
45071;BME280;30836;48.906;9.140;2023-04-08T04:16:25;989.21;;;16.26;46.44
45071;BME280;30836;48.906;9.140;2023-04-08T04:17:25;989.21;;;16.31;46.27
45071;BME280;30836;48.906;9.140;2023-04-08T04:18:25;989.19;;;16.35;46.17
45071;BME280;30836;48.906;9.140;2023-04-08T04:19:28;989.21;;;16.38;46.05
45071;BME280;30836;48.906;9.140;2023-04-08T04:20:29;989.21;;;16.42;46.00
45071;BME280;30836;48.906;9.140;2023-04-08T04:21:30;989.21;;;16.46;45.92
45071;BME280;30836;48.906;9.140;2023-04-08T04:22:30;989.25;;;16.50;45.80
45071;BME280;30836;48.906;9.140;2023-04-08T04:23:31;989.25;;;16.54;45.72
45071;BME280;30836;48.906;9.140;2023-04-08T04:24:31;989.25;;;16.57;45.65
45071;BME280;30836;48.906;9.140;2023-04-08T04:25:32;989.27;;;16.61;45.53
45071;BME280;30836;48.906;9.140;2023-04-08T04:26:32;989.29;;;16.61;45.39
45071;BME280;30836;48.906;9.140;2023-04-08T04:27:33;989.31;;;16.58;45.50
45071;BME280;30836;48.906;9.140;2023-04-08T04:28:33;989.33;;;16.56;45.53
45071;BME280;30836;48.906;9.140;2023-04-08T04:29:34;989.33;;;16.52;45.65
45071;BME280;30836;48.906;9.140;2023-04-08T04:30:38;989.37;;;16.52;45.42
45071;BME280;30836;48.906;9.140;2023-04-08T04:31:38;989.33;;;16.51;45.46
45071;BME280;30836;48.906;9.140;2023-04-08T04:32:39;989.37;;;16.47;45.60
45071;BME280;30836;48.906;9.140;2023-04-08T04:33:40;989.35;;;16.45;45.63
45071;BME280;30836;48.906;9.140;2023-04-08T04:34:40;989.35;;;16.43;45.53
45071;BME280;30836;48.906;9.140;2023-04-08T04:35:41;989.37;;;16.42;45.59
45071;BME280;30836;48.906;9.140;2023-04-08T04:36:41;989.37;;;16.41;45.55
45071;BME280;30836;48.906;9.140;2023-04-08T04:37:42;989.35;;;16.40;45.51
45071;BME280;30836;48.906;9.140;2023-04-08T04:38:43;989.33;;;16.39;45.60
45071;BME280;30836;48.906;9.140;2023-04-08T04:39:44;989.37;;;16.33;45.80
45071;BME280;30836;48.906;9.140;2023-04-08T04:40:44;989.37;;;16.27;45.95
45071;BME280;30836;48.906;9.140;2023-04-08T04:41:45;989.37;;;16.24;45.87
45071;BME280;30836;48.906;9.140;2023-04-08T04:42:45;989.39;;;16.25;45.74
45071;BME280;30836;48.906;9.140;2023-04-08T04:43:46;989.35;;;16.28;45.58
45071;BME280;30836;48.906;9.140;2023-04-08T04:44:46;989.35;;;16.32;45.46
45071;BME280;30836;48.906;9.140;2023-04-08T04:45:46;989.39;;;16.35;45.31
45071;BME280;30836;48.906;9.140;2023-04-08T04:46:47;989.37;;;16.38;45.26
45071;BME280;30836;48.906;9.140;2023-04-08T04:47:47;989.39;;;16.40;45.19
45071;BME280;30836;48.906;9.140;2023-04-08T04:48:48;989.37;;;16.42;45.20
45071;BME280;30836;48.906;9.140;2023-04-08T04:49:48;989.41;;;16.41;45.18
45071;BME280;30836;48.906;9.140;2023-04-08T04:51:55;989.41;;;16.24;45.84
45071;BME280;30836;48.906;9.140;2023-04-08T04:52:55;989.45;;;16.08;46.19
45071;BME280;30836;48.906;9.140;2023-04-08T04:53:56;989.49;;;15.91;46.55
45071;BME280;30836;48.906;9.140;2023-04-08T04:54:56;989.47;;;15.77;46.79
45071;BME280;30836;48.906;9.140;2023-04-08T04:55:57;989.49;;;15.67;46.88
45071;BME280;30836;48.906;9.140;2023-04-08T04:56:58;989.45;;;15.57;47.11
45071;BME280;30836;48.906;9.140;2023-04-08T04:57:58;989.51;;;15.48;47.31
45071;BME280;30836;48.906;9.140;2023-04-08T04:58:58;989.49;;;15.42;47.37
45071;BME280;30836;48.906;9.140;2023-04-08T04:59:59;989.49;;;15.36;47.59
45071;BME280;30836;48.906;9.140;2023-04-08T05:00:59;989.51;;;15.30;47.67
45071;BME280;30836;48.906;9.140;2023-04-08T05:02:00;989.53;;;15.25;47.75
45071;BME280;30836;48.906;9.140;2023-04-08T05:03:00;989.51;;;15.22;47.83
45071;BME280;30836;48.906;9.140;2023-04-08T05:04:00;989.55;;;15.19;47.87
45071;BME280;30836;48.906;9.140;2023-04-08T05:05:01;989.55;;;15.16;48.01
45071;BME280;30836;48.906;9.140;2023-04-08T05:06:01;989.55;;;15.12;48.06
45071;BME280;30836;48.906;9.140;2023-04-08T05:07:02;989.53;;;15.08;48.26
45071;BME280;30836;48.906;9.140;2023-04-08T05:08:02;989.55;;;15.04;48.33
45071;BME280;30836;48.906;9.140;2023-04-08T05:09:03;989.53;;;14.99;48.54
45071;BME280;30836;48.906;9.140;2023-04-08T05:10:04;989.55;;;14.93;48.79
45071;BME280;30836;48.906;9.140;2023-04-08T05:11:08;989.53;;;14.87;48.87
45071;BME280;30836;48.906;9.140;2023-04-08T05:12:09;989.59;;;14.85;48.83
45071;BME280;30836;48.906;9.140;2023-04-08T05:13:10;989.59;;;14.94;48.33
45071;BME280;30836;48.906;9.140;2023-04-08T05:14:10;989.61;;;15.08;47.95
45071;BME280;30836;48.906;9.140;2023-04-08T05:15:10;989.61;;;15.23;47.72
45071;BME280;30836;48.906;9.140;2023-04-08T05:16:11;989.62;;;15.36;47.43
45071;BME280;30836;48.906;9.140;2023-04-08T05:17:11;989.64;;;15.49;47.09
45071;BME280;30836;48.906;9.140;2023-04-08T05:18:12;989.64;;;15.61;46.82
45071;BME280;30836;48.906;9.140;2023-04-08T05:19:12;989.66;;;15.72;46.58
45071;BME280;30836;48.906;9.140;2023-04-08T05:20:13;989.66;;;15.80;46.43
45071;BME280;30836;48.906;9.140;2023-04-08T05:21:13;989.66;;;15.87;46.28
45071;BME280;30836;48.906;9.140;2023-04-08T05:22:13;989.68;;;15.92;46.25
45071;BME280;30836;48.906;9.140;2023-04-08T05:23:14;989.70;;;15.96;46.21
45071;BME280;30836;48.906;9.140;2023-04-08T05:24:14;989.72;;;16.00;46.12
45071;BME280;30836;48.906;9.140;2023-04-08T05:25:15;989.74;;;16.01;46.16
45071;BME280;30836;48.906;9.140;2023-04-08T05:26:15;989.72;;;15.95;46.53
45071;BME280;30836;48.906;9.140;2023-04-08T05:27:16;989.74;;;15.82;46.89
45071;BME280;30836;48.906;9.140;2023-04-08T05:28:16;989.76;;;15.68;47.27
45071;BME280;30836;48.906;9.140;2023-04-08T05:29:16;989.85;;;15.54;47.56
45071;BME280;30836;48.906;9.140;2023-04-08T05:30:17;989.76;;;15.41;47.77
45071;BME280;30836;48.906;9.140;2023-04-08T05:31:18;989.76;;;15.31;47.96
45071;BME280;30836;48.906;9.140;2023-04-08T05:32:19;989.85;;;15.24;48.12
45071;BME280;30836;48.906;9.140;2023-04-08T05:33:20;989.87;;;15.18;48.23
45071;BME280;30836;48.906;9.140;2023-04-08T05:34:20;989.85;;;15.14;48.36
45071;BME280;30836;48.906;9.140;2023-04-08T05:35:21;989.89;;;15.10;48.48
45071;BME280;30836;48.906;9.140;2023-04-08T05:36:21;989.85;;;15.05;48.61
45071;BME280;30836;48.906;9.140;2023-04-08T05:37:21;989.85;;;14.99;48.72
45071;BME280;30836;48.906;9.140;2023-04-08T05:38:22;989.87;;;14.91;48.98
45071;BME280;30836;48.906;9.140;2023-04-08T05:39:22;989.87;;;14.83;49.16
45071;BME280;30836;48.906;9.140;2023-04-08T05:40:23;989.85;;;14.75;49.32
45071;BME280;30836;48.906;9.140;2023-04-08T05:41:23;989.87;;;14.70;49.56